createdAt,value
2023-05-05T00:01:45.164Z,10.56
2023-05-05T00:03:57.266Z,10.60
2023-05-05T00:06:10.809Z,10.62
2023-05-05T00:08:23.444Z,10.58
2023-05-05T00:10:35.049Z,10.58
2023-05-05T00:12:47.107Z,10.56
2023-05-05T00:14:59.170Z,10.53
2023-05-05T00:17:12.319Z,10.47
2023-05-05T00:19:24.272Z,10.43
2023-05-05T00:21:36.420Z,10.39
2023-05-05T00:23:48.449Z,10.37
2023-05-05T00:26:01.523Z,10.34
2023-05-05T00:28:14.613Z,10.30
2023-05-05T00:30:26.673Z,10.32
2023-05-05T00:32:39.397Z,10.25
2023-05-05T00:34:50.842Z,10.24
2023-05-05T00:37:03.906Z,10.19
2023-05-05T00:39:15.005Z,10.21
2023-05-05T00:41:27.982Z,10.18
2023-05-05T00:43:39.188Z,10.12
2023-05-05T00:45:52.127Z,10.06
2023-05-05T00:48:03.372Z,10.00
2023-05-05T00:50:15.392Z,9.96
2023-05-05T00:52:27.483Z,9.93
2023-05-05T00:54:39.582Z,9.91
2023-05-05T00:56:51.662Z,9.86
2023-05-05T00:59:06.102Z,9.85
2023-05-05T01:01:17.337Z,9.81
2023-05-05T01:03:29.516Z,9.81
2023-05-05T01:05:41.473Z,9.76
2023-05-05T01:07:53.550Z,9.75
2023-05-05T01:10:18.899Z,9.70
2023-05-05T01:12:18.709Z,9.70
2023-05-05T01:14:31.769Z,9.70
2023-05-05T01:16:44.009Z,9.63
2023-05-05T01:18:55.936Z,9.60
2023-05-05T01:21:08.008Z,9.58
2023-05-05T01:23:20.082Z,9.50
2023-05-05T01:25:33.170Z,9.42
2023-05-05T01:27:44.289Z,9.43
2023-05-05T01:29:56.345Z,9.42
2023-05-05T01:32:08.499Z,9.38
2023-05-05T01:34:21.468Z,9.34
2023-05-05T01:36:34.168Z,9.31
2023-05-05T01:38:47.756Z,9.28
2023-05-05T01:40:59.809Z,9.31
2023-05-05T01:43:12.778Z,9.28
2023-05-05T01:45:23.977Z,9.27
2023-05-05T01:47:36.119Z,9.20
2023-05-05T01:49:48.174Z,9.16
2023-05-05T01:52:00.231Z,9.16
2023-05-05T01:54:12.316Z,9.10
2023-05-05T01:56:24.403Z,9.06
2023-05-05T01:58:36.989Z,9.09
2023-05-05T02:00:48.568Z,9.10
2023-05-05T02:03:00.686Z,9.06
2023-05-05T02:05:14.130Z,9.06
2023-05-05T02:07:24.789Z,9.09
2023-05-05T02:09:37.392Z,9.05
2023-05-05T02:11:48.989Z,9.02
2023-05-05T02:14:01.979Z,8.96
2023-05-05T02:16:15.066Z,8.91
2023-05-05T02:18:25.211Z,8.90
2023-05-05T02:20:38.286Z,8.88
2023-05-05T02:22:50.390Z,8.87
2023-05-05T02:25:02.456Z,8.83
2023-05-05T02:27:15.502Z,8.76
2023-05-05T02:29:27.584Z,8.72
2023-05-05T02:31:39.783Z,8.68
2023-05-05T02:33:51.802Z,8.62
2023-05-05T02:36:03.828Z,8.65
2023-05-05T02:38:16.790Z,8.63
2023-05-05T02:40:28.881Z,8.58
2023-05-05T02:42:40.125Z,8.54
2023-05-05T02:44:53.720Z,8.47
2023-05-05T02:47:05.786Z,8.47
2023-05-05T02:49:18.798Z,8.37
2023-05-05T02:51:29.915Z,8.33
2023-05-05T02:53:43.004Z,8.22
2023-05-05T02:55:55.096Z,8.17
2023-05-05T02:58:07.179Z,8.17
2023-05-05T03:00:19.228Z,8.17
2023-05-05T03:02:31.358Z,8.14
2023-05-05T03:04:43.402Z,8.08
2023-05-05T03:06:55.515Z,8.02
2023-05-05T03:09:07.553Z,8.00
2023-05-05T03:11:20.654Z,8.02
2023-05-05T03:13:32.699Z,7.99
2023-05-05T03:15:44.784Z,7.96
2023-05-05T03:17:56.955Z,7.93
2023-05-05T03:20:09.083Z,7.89
2023-05-05T03:22:21.020Z,7.82
2023-05-05T03:24:33.125Z,7.77
2023-05-05T03:26:46.093Z,7.77
2023-05-05T03:28:57.311Z,7.81
2023-05-05T03:31:09.359Z,7.84
2023-05-05T03:33:21.467Z,7.90
2023-05-05T03:35:35.036Z,7.92
2023-05-05T03:37:47.088Z,7.94
2023-05-05T03:39:59.241Z,7.96
2023-05-05T03:42:11.258Z,7.94
2023-05-05T03:44:23.351Z,7.97
2023-05-05T03:46:35.433Z,7.99
2023-05-05T03:48:47.516Z,8.00
2023-05-05T03:51:00.489Z,8.02
2023-05-05T03:53:11.670Z,8.00
2023-05-05T03:55:23.736Z,8.04
2023-05-05T03:57:37.013Z,8.12
2023-05-05T03:59:48.196Z,8.18
2023-05-05T04:02:00.381Z,8.18
2023-05-05T04:04:12.523Z,8.21
2023-05-05T04:06:25.435Z,8.26
2023-05-05T04:08:37.544Z,8.33
2023-05-05T04:10:49.613Z,8.37
2023-05-05T04:13:01.754Z,8.48
2023-05-05T04:15:14.666Z,8.51
2023-05-05T04:17:27.379Z,8.54
2023-05-05T04:19:39.433Z,8.63
2023-05-05T04:21:51.521Z,8.73
2023-05-05T04:24:03.650Z,8.81
2023-05-05T04:26:15.734Z,8.91
2023-05-05T04:28:28.281Z,8.94
2023-05-05T04:30:40.129Z,9.01
2023-05-05T04:32:53.878Z,9.06
2023-05-05T04:35:05.828Z,9.10
2023-05-05T04:37:17.882Z,9.12
2023-05-05T04:39:30.002Z,9.10
2023-05-05T04:41:42.077Z,9.10
2023-05-05T04:43:54.141Z,9.18
2023-05-05T04:46:06.256Z,9.25
2023-05-05T04:48:19.191Z,9.25
2023-05-05T04:50:30.379Z,9.28
2023-05-05T04:52:43.350Z,9.39
2023-05-05T04:54:55.060Z,9.52
2023-05-05T04:57:06.639Z,9.63
2023-05-05T04:59:18.718Z,9.82
2023-05-05T05:01:30.786Z,9.99
2023-05-05T05:03:42.963Z,10.17
2023-05-05T05:05:54.931Z,10.34
2023-05-05T05:08:07.060Z,10.47
2023-05-05T05:10:19.139Z,10.66
2023-05-05T05:12:31.280Z,10.81
2023-05-05T05:14:43.333Z,11.01
2023-05-05T05:16:56.374Z,11.16
2023-05-05T05:19:09.946Z,11.27
2023-05-05T05:21:20.572Z,11.44
2023-05-05T05:23:32.614Z,11.56
2023-05-05T05:25:44.684Z,11.70
2023-05-05T05:28:08.749Z,11.78
2023-05-05T05:28:57.741Z,11.86
2023-05-05T05:31:09.720Z,12.04
2023-05-05T05:33:21.804Z,12.20
2023-05-05T05:35:33.091Z,12.38
2023-05-05T05:37:46.574Z,12.49
2023-05-05T05:40:00.603Z,12.60
2023-05-05T05:42:11.733Z,12.75
2023-05-05T05:44:23.797Z,12.92
2023-05-05T05:46:36.042Z,12.93
2023-05-05T05:48:48.853Z,13.11
2023-05-05T05:51:00.163Z,12.82
2023-05-05T05:53:12.189Z,12.74
2023-05-05T05:55:27.127Z,12.42
2023-05-05T05:57:39.245Z,12.21
2023-05-05T05:59:50.442Z,12.42
2023-05-05T06:02:04.462Z,12.95
2023-05-05T06:04:17.182Z,13.37
2023-05-05T06:06:29.252Z,13.73
2023-05-05T06:08:41.320Z,13.98
2023-05-05T06:10:53.467Z,13.95
2023-05-05T06:13:05.535Z,14.07
2023-05-05T06:15:18.515Z,14.07
2023-05-05T06:17:29.629Z,14.27
2023-05-05T06:19:41.749Z,14.21
2023-05-05T06:21:53.795Z,14.02
2023-05-05T06:24:06.885Z,13.89
2023-05-05T06:26:19.858Z,14.10
2023-05-05T06:28:31.938Z,14.29
2023-05-05T06:30:43.238Z,14.39
2023-05-05T06:32:56.227Z,14.56
2023-05-05T06:35:08.261Z,14.61
2023-05-05T06:37:20.343Z,14.90
2023-05-05T06:39:32.417Z,15.05
2023-05-05T06:41:44.519Z,14.99
2023-05-05T06:43:56.585Z,14.90
2023-05-05T06:46:08.640Z,14.52
2023-05-05T06:48:20.728Z,14.52
2023-05-05T06:50:32.824Z,14.54
2023-05-05T06:52:44.914Z,14.62
2023-05-05T06:54:56.973Z,14.86
2023-05-05T06:57:09.066Z,14.83
2023-05-05T06:59:22.114Z,14.72
2023-05-05T07:01:34.183Z,14.90
2023-05-05T07:03:47.302Z,15.09
2023-05-05T07:06:00.835Z,15.54
2023-05-05T07:08:12.915Z,15.78
2023-05-05T07:10:25.005Z,15.78
2023-05-05T07:12:37.106Z,15.52
2023-05-05T07:14:49.196Z,15.51
2023-05-05T07:17:01.268Z,15.56
2023-05-05T07:19:13.535Z,16.01
2023-05-05T07:21:25.383Z,16.35
2023-05-05T07:23:38.998Z,16.41
2023-05-05T07:25:51.973Z,16.53
2023-05-05T07:28:04.014Z,16.09
2023-05-05T07:30:18.354Z,15.97
2023-05-05T07:32:28.293Z,16.12
2023-05-05T07:34:39.372Z,16.11
2023-05-05T07:36:52.466Z,15.99
2023-05-05T07:39:04.545Z,15.96
2023-05-05T07:41:16.604Z,16.01
2023-05-05T07:43:28.708Z,16.22
2023-05-05T07:45:40.823Z,16.30
2023-05-05T07:47:53.786Z,16.26
2023-05-05T07:50:04.930Z,16.27
2023-05-05T07:52:17.913Z,16.65
2023-05-05T07:54:29.154Z,16.56
2023-05-05T07:56:42.099Z,16.40
2023-05-05T07:58:54.196Z,16.52
2023-05-05T08:01:05.379Z,16.74
2023-05-05T08:03:18.549Z,16.86
2023-05-05T08:05:30.527Z,17.00
2023-05-05T08:07:44.462Z,17.06
2023-05-05T08:09:55.697Z,17.10
2023-05-05T08:12:07.759Z,17.26
2023-05-05T08:14:19.846Z,17.69
2023-05-05T08:16:32.960Z,17.78
2023-05-05T08:18:44.000Z,17.87
2023-05-05T08:20:56.087Z,17.89
2023-05-05T08:23:08.168Z,17.88
2023-05-05T08:25:21.616Z,17.78
2023-05-05T08:27:32.316Z,17.95
2023-05-05T08:29:45.896Z,18.22
2023-05-05T08:31:58.100Z,18.67
2023-05-05T08:34:10.575Z,18.80
2023-05-05T08:36:22.152Z,18.72
2023-05-05T08:38:34.200Z,18.49
2023-05-05T08:40:47.272Z,18.68
2023-05-05T08:42:59.376Z,18.74
2023-05-05T08:45:11.710Z,18.84
2023-05-05T08:47:23.638Z,19.18
2023-05-05T08:49:36.665Z,19.42
2023-05-05T08:51:48.769Z,19.65
2023-05-05T08:54:00.865Z,19.86
2023-05-05T08:56:12.927Z,19.84
2023-05-05T08:58:26.405Z,20.25
2023-05-05T09:00:37.949Z,20.43
2023-05-05T09:02:50.192Z,19.88
2023-05-05T09:05:01.245Z,19.94
2023-05-05T09:07:13.321Z,19.58
2023-05-05T09:09:26.499Z,19.54
2023-05-05T09:11:42.005Z,19.70
2023-05-05T09:13:54.042Z,20.39
2023-05-05T09:16:12.163Z,20.51
2023-05-05T09:18:24.727Z,20.86
2023-05-05T09:20:40.701Z,21.04
2023-05-05T09:22:53.373Z,21.02
2023-05-05T09:25:07.233Z,21.02
2023-05-05T09:27:20.614Z,21.01
2023-05-05T09:29:36.130Z,21.09
2023-05-05T09:31:49.740Z,21.53
2023-05-05T09:34:06.200Z,21.29
2023-05-05T09:36:18.930Z,21.06
2023-05-05T09:38:32.833Z,21.45
2023-05-05T09:40:46.078Z,21.59
2023-05-05T09:42:59.745Z,22.29
2023-05-05T09:45:13.263Z,22.46
2023-05-05T09:47:29.452Z,21.90
2023-05-05T09:49:38.937Z,21.46
2023-05-05T09:51:51.292Z,21.85
2023-05-05T09:54:04.871Z,21.94
2023-05-05T09:56:16.969Z,21.81
2023-05-05T09:58:30.621Z,21.56
2023-05-05T10:00:43.628Z,21.36
2023-05-05T10:02:55.744Z,21.27
2023-05-05T10:05:07.888Z,21.02
2023-05-05T10:07:19.855Z,21.16
2023-05-05T10:09:31.947Z,21.42
2023-05-05T10:11:44.036Z,22.02
2023-05-05T10:13:56.987Z,22.47
2023-05-05T10:16:08.172Z,22.46
2023-05-05T10:18:20.303Z,22.74
2023-05-05T10:20:32.906Z,22.92
2023-05-05T10:22:44.466Z,22.67
2023-05-05T10:24:56.493Z,22.97
2023-05-05T10:27:08.917Z,22.99
2023-05-05T10:29:20.687Z,23.14
2023-05-05T10:31:32.801Z,23.53
2023-05-05T10:33:44.965Z,23.35
2023-05-05T10:35:56.922Z,22.97
2023-05-05T10:38:08.994Z,23.19
2023-05-05T10:40:21.075Z,23.11
2023-05-05T10:42:33.178Z,23.09
2023-05-05T10:44:47.171Z,23.53
2023-05-05T10:46:59.221Z,24.10
2023-05-05T10:49:12.960Z,23.80
2023-05-05T10:51:35.264Z,23.70
2023-05-05T10:53:34.543Z,22.83
2023-05-05T10:55:46.739Z,23.20
2023-05-05T10:57:58.765Z,23.55
2023-05-05T11:00:12.898Z,23.55
2023-05-05T11:02:22.946Z,23.72
2023-05-05T11:04:37.876Z,24.20
2023-05-05T11:06:48.063Z,24.04
2023-05-05T11:09:01.030Z,24.12
2023-05-05T11:11:12.209Z,24.83
2023-05-05T11:13:24.382Z,25.46
2023-05-05T11:15:36.364Z,25.65
2023-05-05T11:17:48.592Z,24.94
2023-05-05T11:20:01.420Z,24.19
2023-05-05T11:22:12.913Z,24.32
2023-05-05T11:24:24.983Z,24.41
2023-05-05T11:26:37.057Z,24.05
2023-05-05T11:28:49.168Z,23.98
2023-05-05T11:31:01.335Z,23.72
2023-05-05T11:33:13.280Z,23.86
2023-05-05T11:35:25.359Z,23.50
2023-05-05T11:37:37.435Z,23.70
2023-05-05T11:39:49.636Z,23.57
2023-05-05T11:42:07.972Z,23.40
2023-05-05T11:44:14.660Z,23.08
2023-05-05T11:46:27.662Z,22.52
2023-05-05T11:48:38.711Z,22.44
2023-05-05T11:50:49.923Z,23.09
2023-05-05T11:53:02.005Z,23.64
2023-05-05T11:55:14.061Z,23.61
2023-05-05T11:57:26.144Z,24.20
2023-05-05T11:59:38.236Z,23.90
2023-05-05T12:01:50.335Z,24.04
2023-05-05T12:04:02.524Z,24.23
2023-05-05T12:06:14.450Z,24.32
2023-05-05T12:08:26.527Z,24.26
2023-05-05T12:10:39.598Z,24.23
2023-05-05T12:12:54.562Z,24.16
2023-05-05T12:15:05.674Z,23.62
2023-05-05T12:17:16.830Z,23.24
2023-05-05T12:19:28.909Z,22.94
2023-05-05T12:21:40.991Z,23.02
2023-05-05T12:23:53.094Z,23.20
2023-05-05T12:26:05.152Z,23.11
2023-05-05T12:28:17.202Z,22.82
2023-05-05T12:30:29.238Z,22.57
2023-05-05T12:32:42.122Z,22.52
2023-05-05T12:34:53.261Z,22.46
2023-05-05T12:37:05.326Z,22.09
2023-05-05T12:39:17.406Z,22.06
2023-05-05T12:41:30.460Z,21.88
2023-05-05T12:43:42.543Z,21.61
2023-05-05T12:45:55.216Z,21.66
2023-05-05T12:48:06.724Z,21.59
2023-05-05T12:50:18.822Z,21.72
2023-05-05T12:52:31.399Z,21.83
2023-05-05T12:54:44.258Z,21.90
2023-05-05T12:56:57.328Z,21.95
2023-05-05T12:59:09.439Z,21.94
2023-05-05T13:01:22.438Z,21.81
2023-05-05T13:03:33.616Z,21.91
2023-05-05T13:05:45.673Z,21.95
2023-05-05T13:07:58.765Z,22.16
2023-05-05T13:10:11.839Z,22.07
2023-05-05T13:12:25.154Z,21.85
2023-05-05T13:14:37.989Z,21.78
2023-05-05T13:16:51.612Z,21.85
2023-05-05T13:19:04.700Z,21.98
2023-05-05T13:21:19.236Z,21.82
2023-05-05T13:23:32.865Z,21.60
2023-05-05T13:25:44.941Z,21.59
2023-05-05T13:28:00.581Z,21.85
2023-05-05T13:30:11.678Z,21.76
2023-05-05T13:32:23.741Z,21.69
2023-05-05T13:34:35.839Z,21.45
2023-05-05T13:36:47.912Z,21.48
2023-05-05T13:38:59.968Z,21.61
2023-05-05T13:41:12.097Z,21.69
2023-05-05T13:43:24.156Z,21.61
2023-05-05T13:45:39.979Z,21.72
2023-05-05T13:47:49.830Z,21.66
2023-05-05T13:50:02.230Z,21.76
2023-05-05T13:52:15.314Z,21.92
2023-05-05T13:54:27.325Z,22.13
2023-05-05T13:56:39.389Z,22.09
2023-05-05T13:58:51.475Z,21.88
2023-05-05T14:01:03.569Z,21.71
2023-05-05T14:03:16.570Z,21.72
2023-05-05T14:05:32.933Z,21.69
2023-05-05T14:07:41.692Z,21.71
2023-05-05T14:09:54.753Z,21.35
2023-05-05T14:12:05.971Z,21.19
2023-05-05T14:14:18.066Z,21.11
2023-05-05T14:16:30.510Z,21.06
2023-05-05T14:18:43.502Z,21.04
2023-05-05T14:20:55.560Z,21.13
2023-05-05T14:23:07.639Z,21.23
2023-05-05T14:25:19.738Z,21.39
2023-05-05T14:27:31.790Z,21.54
2023-05-05T14:29:44.795Z,21.38
2023-05-05T14:31:55.986Z,21.41
2023-05-05T14:34:08.304Z,21.41
2023-05-05T14:36:20.463Z,21.41
2023-05-05T14:38:32.561Z,21.34
2023-05-05T14:40:44.592Z,21.32
2023-05-05T14:42:57.686Z,21.50
2023-05-05T14:45:09.958Z,21.61
2023-05-05T14:47:21.893Z,21.32
2023-05-05T14:49:33.912Z,21.27
2023-05-05T14:51:45.986Z,21.24
2023-05-05T14:53:59.989Z,21.21
2023-05-05T14:56:11.134Z,21.36
2023-05-05T14:58:23.212Z,21.59
2023-05-05T15:00:35.288Z,21.60
2023-05-05T15:02:49.888Z,21.76
2023-05-05T15:05:00.995Z,21.83
2023-05-05T15:07:14.073Z,21.72
2023-05-05T15:09:26.189Z,21.44
2023-05-05T15:11:38.313Z,21.45
2023-05-05T15:13:51.330Z,21.23
2023-05-05T15:16:02.498Z,21.09
2023-05-05T15:18:14.573Z,20.91
2023-05-05T15:20:28.998Z,20.71
2023-05-05T15:22:44.011Z,20.62
2023-05-05T15:24:55.200Z,20.47
2023-05-05T15:27:08.267Z,20.35
2023-05-05T15:29:19.329Z,20.21
2023-05-05T15:31:31.496Z,20.25
2023-05-05T15:33:44.007Z,20.31
2023-05-05T15:35:55.564Z,20.46
2023-05-05T15:38:08.544Z,20.54
2023-05-05T15:40:19.717Z,20.69
2023-05-05T15:42:31.848Z,20.81
2023-05-05T15:44:43.869Z,20.69
2023-05-05T15:46:55.998Z,20.54
2023-05-05T15:49:08.035Z,20.41
2023-05-05T15:51:20.116Z,20.38
2023-05-05T15:53:33.178Z,20.33
2023-05-05T15:55:45.249Z,20.31
2023-05-05T15:57:57.335Z,20.28
2023-05-05T16:00:10.487Z,20.20
2023-05-05T16:02:23.604Z,20.09
2023-05-05T16:04:35.619Z,20.00
2023-05-05T16:06:46.778Z,19.80
2023-05-05T16:08:59.872Z,19.78
2023-05-05T16:11:13.812Z,19.75
2023-05-05T16:13:25.110Z,19.72
2023-05-05T16:15:37.204Z,19.72
2023-05-05T16:17:49.253Z,19.66
2023-05-05T16:20:01.449Z,19.54
2023-05-05T16:22:13.411Z,19.48
2023-05-05T16:24:26.010Z,19.47
2023-05-05T16:26:37.591Z,19.40
2023-05-05T16:28:49.644Z,19.33
2023-05-05T16:31:02.621Z,19.25
2023-05-05T16:33:14.708Z,19.17
2023-05-05T16:35:26.785Z,19.14
2023-05-05T16:37:37.976Z,19.13
2023-05-05T16:39:50.029Z,19.05
2023-05-05T16:42:02.151Z,19.02
2023-05-05T16:44:14.254Z,18.97
2023-05-05T16:46:27.255Z,18.87
2023-05-05T16:48:38.377Z,18.80
2023-05-05T16:50:50.429Z,18.70
2023-05-05T16:53:03.496Z,18.65
2023-05-05T16:55:15.581Z,18.59
2023-05-05T16:57:27.657Z,18.57
2023-05-05T16:59:40.766Z,18.54
2023-05-05T17:01:53.719Z,18.47
2023-05-05T17:04:04.914Z,18.40
2023-05-05T17:06:16.949Z,18.34
2023-05-05T17:08:29.059Z,18.28
2023-05-05T17:10:42.214Z,18.24
2023-05-05T17:12:55.262Z,18.18
2023-05-05T17:15:05.419Z,18.12
2023-05-05T17:17:17.488Z,18.09
2023-05-05T17:19:31.451Z,18.04
2023-05-05T17:21:42.959Z,18.02
2023-05-05T17:23:55.013Z,18.00
2023-05-05T17:26:07.097Z,17.97
2023-05-05T17:28:19.772Z,17.94
2023-05-05T17:30:33.632Z,17.89
2023-05-05T17:32:46.342Z,17.85
2023-05-05T17:34:59.300Z,17.81
2023-05-05T17:37:14.995Z,17.74
2023-05-05T17:39:27.583Z,17.69
2023-05-05T17:41:41.147Z,17.66
2023-05-05T17:43:54.766Z,17.66
2023-05-05T17:46:06.871Z,17.62
2023-05-05T17:48:18.947Z,17.62
2023-05-05T17:50:32.466Z,17.57
2023-05-05T17:52:44.540Z,17.55
2023-05-05T17:54:58.175Z,17.51
2023-05-05T17:57:11.221Z,17.50
2023-05-05T17:59:25.671Z,17.46
2023-05-05T18:01:36.926Z,17.43
2023-05-05T18:03:50.472Z,17.40
2023-05-05T18:06:03.760Z,17.35
2023-05-05T18:08:16.317Z,17.30
2023-05-05T18:10:27.862Z,17.28
2023-05-05T18:12:41.030Z,17.20
2023-05-05T18:14:56.838Z,17.18
2023-05-05T18:17:10.640Z,17.18
2023-05-05T18:19:22.751Z,17.11
2023-05-05T18:21:34.789Z,17.10
2023-05-05T18:23:47.898Z,17.10
2023-05-05T18:25:59.994Z,17.06
2023-05-05T18:28:12.082Z,17.03
2023-05-05T18:30:25.656Z,16.98
2023-05-05T18:32:44.621Z,16.85
2023-05-05T18:34:57.314Z,16.63
2023-05-05T18:37:12.898Z,16.42
2023-05-05T18:39:27.500Z,16.26
2023-05-05T18:41:43.029Z,16.22
2023-05-05T18:44:04.069Z,16.22
2023-05-05T18:44:59.538Z,16.18
2023-05-05T18:47:16.605Z,16.07
2023-05-05T18:50:04.824Z,15.96
2023-05-05T18:51:50.166Z,15.89
2023-05-05T18:54:19.858Z,15.85
2023-05-05T18:56:15.915Z,15.82
2023-05-05T18:58:31.477Z,15.88
2023-05-05T19:00:45.548Z,15.88
2023-05-05T19:03:17.300Z,15.89
2023-05-05T19:05:18.193Z,15.92
2023-05-05T19:07:35.462Z,15.86
2023-05-05T19:09:43.290Z,15.84
2023-05-05T19:11:54.403Z,15.79
2023-05-05T19:14:07.981Z,15.76
2023-05-05T19:16:20.067Z,15.74
2023-05-05T19:18:32.157Z,15.72
2023-05-05T19:20:44.218Z,15.75
2023-05-05T19:22:56.284Z,15.74
2023-05-05T19:25:31.265Z,15.70
2023-05-05T19:27:24.354Z,15.68
2023-05-05T19:31:07.160Z,15.68
2023-05-05T19:33:08.408Z,15.70
2023-05-05T19:35:21.470Z,15.70
2023-05-05T19:40:28.751Z,15.68
2023-05-05T19:44:04.861Z,15.68
2023-05-05T19:51:00.423Z,15.57
2023-05-05T19:53:11.791Z,15.51
2023-05-05T19:56:10.852Z,15.51
2023-05-05T19:57:40.034Z,15.49
2023-05-05T19:59:53.096Z,15.49
2023-05-05T20:02:20.812Z,15.45
2023-05-05T20:04:44.862Z,15.42
2023-05-05T20:06:42.370Z,15.39
2023-05-05T20:08:54.433Z,15.36
2023-05-05T20:11:06.534Z,15.31
2023-05-05T20:13:18.655Z,15.28
2023-05-05T20:15:31.396Z,15.26
2023-05-05T20:17:42.848Z,15.21
2023-05-05T20:19:54.843Z,15.19
2023-05-05T20:22:07.800Z,15.13
2023-05-05T20:24:18.991Z,15.11
2023-05-05T20:26:31.156Z,15.08
2023-05-05T20:28:45.284Z,15.05
2023-05-05T20:30:55.224Z,15.01
2023-05-05T20:33:07.382Z,15.01
2023-05-05T20:35:19.386Z,15.01
2023-05-05T20:37:31.496Z,14.98
2023-05-05T20:39:44.540Z,14.94
2023-05-05T20:41:56.533Z,14.87
2023-05-05T20:44:07.719Z,14.86
2023-05-05T20:46:19.830Z,14.80
2023-05-05T20:48:33.070Z,14.80
2023-05-05T20:50:44.003Z,14.78
2023-05-05T20:52:57.532Z,14.72
2023-05-05T20:55:09.626Z,14.69
2023-05-05T20:57:21.691Z,14.67
2023-05-05T20:59:34.092Z,14.62
2023-05-05T21:01:46.221Z,14.61
2023-05-05T21:03:58.223Z,14.60
2023-05-05T21:06:10.315Z,14.56
2023-05-05T21:08:24.266Z,14.53
2023-05-05T21:10:36.448Z,14.47
2023-05-05T21:12:48.532Z,14.43
2023-05-05T21:15:00.633Z,14.42
2023-05-05T21:17:12.685Z,14.37
2023-05-05T21:19:24.775Z,14.34
2023-05-05T21:21:35.847Z,14.35
2023-05-05T21:23:47.990Z,14.34
2023-05-05T21:26:00.042Z,14.32
2023-05-05T21:28:12.089Z,14.32
2023-05-05T21:30:25.083Z,14.29
2023-05-05T21:32:36.299Z,14.27
2023-05-05T21:34:48.336Z,14.19
2023-05-05T21:37:00.410Z,14.13
2023-05-05T21:39:12.517Z,14.07
2023-05-05T21:41:25.559Z,13.99
2023-05-05T21:43:36.698Z,13.95
2023-05-05T21:45:50.259Z,13.88
2023-05-05T21:48:00.862Z,13.74
2023-05-05T21:50:13.825Z,13.62
2023-05-05T21:52:25.027Z,13.37
2023-05-05T21:54:37.096Z,13.09
2023-05-05T21:56:51.089Z,12.89
2023-05-05T21:59:02.261Z,12.74
2023-05-05T22:01:15.238Z,12.54
2023-05-05T22:03:27.493Z,12.42
2023-05-05T22:05:38.506Z,12.27
2023-05-05T22:07:52.992Z,12.19
2023-05-05T22:10:05.608Z,12.09
2023-05-05T22:12:15.780Z,12.01
2023-05-05T22:14:29.374Z,12.01
2023-05-05T22:16:40.939Z,11.89
2023-05-05T22:17:39.981Z,11.83
2023-05-05T22:19:52.058Z,11.72
2023-05-05T22:22:04.701Z,11.71
2023-05-05T22:24:17.236Z,11.61
2023-05-05T22:26:30.173Z,11.57
2023-05-05T22:28:41.368Z,11.47
2023-05-05T22:30:53.439Z,11.36
2023-05-05T22:33:05.553Z,11.35
2023-05-05T22:35:19.842Z,11.28
2023-05-05T22:37:32.193Z,11.24
2023-05-05T22:39:44.735Z,11.17
2023-05-05T22:41:58.306Z,11.10
2023-05-05T22:44:11.270Z,11.07
2023-05-05T22:46:23.811Z,11.03
2023-05-05T22:48:34.536Z,11.01
2023-05-05T22:50:48.646Z,10.99
2023-05-05T22:53:01.095Z,10.95
2023-05-05T22:55:13.764Z,10.91
2023-05-05T22:57:27.269Z,10.86
2023-05-05T22:59:37.945Z,10.80
2023-05-05T23:01:50.008Z,10.76
2023-05-05T23:04:02.138Z,10.76
2023-05-05T23:06:15.112Z,10.71
2023-05-05T23:08:27.271Z,10.70
2023-05-05T23:10:39.318Z,10.66
2023-05-05T23:12:51.976Z,10.66
2023-05-05T23:15:03.477Z,10.65
2023-05-05T23:17:15.588Z,10.65
2023-05-05T23:19:27.679Z,10.56
2023-05-05T23:21:52.179Z,10.55
2023-05-05T23:22:40.715Z,10.56
2023-05-05T23:24:51.830Z,10.51
2023-05-05T23:27:04.849Z,10.47
2023-05-05T23:29:16.959Z,10.47
2023-05-05T23:31:29.034Z,10.43
2023-05-05T23:33:43.024Z,10.37
2023-05-05T23:35:55.177Z,10.36
2023-05-05T23:38:08.131Z,10.36
2023-05-05T23:40:20.259Z,10.34
2023-05-05T23:42:33.312Z,10.32
2023-05-05T23:44:44.424Z,10.32
2023-05-05T23:46:56.538Z,10.26
2023-05-05T23:49:07.638Z,10.25
2023-05-05T23:51:21.223Z,10.26
2023-05-05T23:53:34.311Z,10.25
2023-05-05T23:55:47.394Z,10.19
2023-05-05T23:58:01.530Z,10.15
